sensor_id;sensor_type;location;lat;lon;timestamp;P1;durP1;ratioP1;P2;durP2;ratioP2
74749;SDS011;63269;53.330;-6.288;2023-01-20T00:01:27;5.68;;;4.95;;
74749;SDS011;63269;53.330;-6.288;2023-01-20T00:03:54;8.02;;;5.68;;
74749;SDS011;63269;53.330;-6.288;2023-01-20T00:06:21;10.07;;;6.00;;
74749;SDS011;63269;53.330;-6.288;2023-01-20T00:08:50;8.65;;;5.93;;
74749;SDS011;63269;53.330;-6.288;2023-01-20T00:11:17;7.85;;;5.38;;
74749;SDS011;63269;53.330;-6.288;2023-01-20T00:13:43;7.90;;;5.30;;
74749;SDS011;63269;53.330;-6.288;2023-01-20T00:16:08;8.50;;;5.55;;
74749;SDS011;63269;53.330;-6.288;2023-01-20T00:18:35;8.10;;;5.40;;
74749;SDS011;63269;53.330;-6.288;2023-01-20T00:21:04;6.40;;;4.82;;
74749;SDS011;63269;53.330;-6.288;2023-01-20T00:23:35;8.18;;;5.72;;
74749;SDS011;63269;53.330;-6.288;2023-01-20T00:26:04;6.28;;;4.90;;
74749;SDS011;63269;53.330;-6.288;2023-01-20T00:28:34;6.10;;;4.78;;
74749;SDS011;63269;53.330;-6.288;2023-01-20T00:33:46;7.40;;;5.20;;
74749;SDS011;63269;53.330;-6.288;2023-01-20T00:36:13;6.22;;;5.07;;
74749;SDS011;63269;53.330;-6.288;2023-01-20T00:38:39;8.00;;;5.18;;
74749;SDS011;63269;53.330;-6.288;2023-01-20T00:41:05;7.35;;;5.07;;
74749;SDS011;63269;53.330;-6.288;2023-01-20T00:43:31;6.30;;;4.82;;
74749;SDS011;63269;53.330;-6.288;2023-01-20T00:45:56;7.97;;;5.70;;
74749;SDS011;63269;53.330;-6.288;2023-01-20T00:48:22;8.55;;;6.03;;
74749;SDS011;63269;53.330;-6.288;2023-01-20T00:50:47;9.15;;;5.45;;
74749;SDS011;63269;53.330;-6.288;2023-01-20T00:53:13;9.55;;;5.65;;
74749;SDS011;63269;53.330;-6.288;2023-01-20T00:55:38;7.57;;;5.63;;
74749;SDS011;63269;53.330;-6.288;2023-01-20T00:58:04;7.65;;;5.43;;
74749;SDS011;63269;53.330;-6.288;2023-01-20T01:00:29;7.15;;;5.25;;
74749;SDS011;63269;53.330;-6.288;2023-01-20T01:02:55;8.27;;;6.05;;
74749;SDS011;63269;53.330;-6.288;2023-01-20T01:05:21;7.28;;;5.32;;
74749;SDS011;63269;53.330;-6.288;2023-01-20T01:07:46;9.15;;;5.72;;
74749;SDS011;63269;53.330;-6.288;2023-01-20T01:10:12;7.75;;;5.95;;
74749;SDS011;63269;53.330;-6.288;2023-01-20T01:12:37;8.63;;;5.95;;
74749;SDS011;63269;53.330;-6.288;2023-01-20T01:15:03;8.25;;;5.88;;
74749;SDS011;63269;53.330;-6.288;2023-01-20T01:17:28;7.20;;;5.50;;
74749;SDS011;63269;53.330;-6.288;2023-01-20T01:19:54;8.10;;;5.32;;
74749;SDS011;63269;53.330;-6.288;2023-01-20T01:22:20;8.07;;;6.22;;
74749;SDS011;63269;53.330;-6.288;2023-01-20T01:24:45;7.70;;;5.70;;
74749;SDS011;63269;53.330;-6.288;2023-01-20T01:27:11;8.13;;;6.25;;
74749;SDS011;63269;53.330;-6.288;2023-01-20T01:29:37;8.05;;;5.97;;
74749;SDS011;63269;53.330;-6.288;2023-01-20T01:32:02;8.02;;;5.57;;
74749;SDS011;63269;53.330;-6.288;2023-01-20T01:34:28;8.00;;;6.45;;
74749;SDS011;63269;53.330;-6.288;2023-01-20T01:36:54;7.70;;;6.07;;
74749;SDS011;63269;53.330;-6.288;2023-01-20T01:39:19;7.78;;;6.28;;
74749;SDS011;63269;53.330;-6.288;2023-01-20T01:41:45;7.38;;;5.65;;
74749;SDS011;63269;53.330;-6.288;2023-01-20T01:44:11;7.65;;;5.50;;
74749;SDS011;63269;53.330;-6.288;2023-01-20T01:46:38;7.65;;;5.65;;
74749;SDS011;63269;53.330;-6.288;2023-01-20T01:51:37;9.02;;;5.35;;
74749;SDS011;63269;53.330;-6.288;2023-01-20T01:54:08;8.35;;;5.70;;
74749;SDS011;63269;53.330;-6.288;2023-01-20T01:56:45;8.07;;;5.57;;
74749;SDS011;63269;53.330;-6.288;2023-01-20T01:59:13;8.70;;;5.38;;
74749;SDS011;63269;53.330;-6.288;2023-01-20T02:01:40;7.07;;;5.22;;
74749;SDS011;63269;53.330;-6.288;2023-01-20T02:04:10;8.10;;;5.22;;
74749;SDS011;63269;53.330;-6.288;2023-01-20T02:06:48;7.45;;;5.45;;
74749;SDS011;63269;53.330;-6.288;2023-01-20T02:09:16;7.68;;;5.43;;
74749;SDS011;63269;53.330;-6.288;2023-01-20T02:11:43;6.28;;;5.28;;
74749;SDS011;63269;53.330;-6.288;2023-01-20T02:14:15;6.13;;;4.97;;
74749;SDS011;63269;53.330;-6.288;2023-01-20T02:19:51;6.80;;;5.03;;
74749;SDS011;63269;53.330;-6.288;2023-01-20T02:22:39;6.18;;;4.60;;
74749;SDS011;63269;53.330;-6.288;2023-01-20T02:36:07;5.30;;;4.45;;
74749;SDS011;63269;53.330;-6.288;2023-01-20T02:38:43;5.50;;;3.60;;
74749;SDS011;63269;53.330;-6.288;2023-01-20T02:41:40;5.88;;;4.13;;
74749;SDS011;63269;53.330;-6.288;2023-01-20T02:49:27;5.65;;;4.05;;
74749;SDS011;63269;53.330;-6.288;2023-01-20T02:52:04;4.88;;;3.67;;
74749;SDS011;63269;53.330;-6.288;2023-01-20T02:54:40;6.68;;;4.05;;
74749;SDS011;63269;53.330;-6.288;2023-01-20T02:59:39;5.25;;;3.10;;
74749;SDS011;63269;53.330;-6.288;2023-01-20T03:02:09;4.85;;;3.47;;
74749;SDS011;63269;53.330;-6.288;2023-01-20T03:04:49;4.68;;;3.55;;
74749;SDS011;63269;53.330;-6.288;2023-01-20T03:07:17;5.88;;;3.75;;
74749;SDS011;63269;53.330;-6.288;2023-01-20T03:09:47;4.30;;;3.33;;
74749;SDS011;63269;53.330;-6.288;2023-01-20T03:12:20;5.22;;;3.58;;
74749;SDS011;63269;53.330;-6.288;2023-01-20T03:14:51;5.38;;;3.42;;
74749;SDS011;63269;53.330;-6.288;2023-01-20T03:17:17;5.35;;;3.67;;
74749;SDS011;63269;53.330;-6.288;2023-01-20T03:19:44;5.80;;;3.58;;
74749;SDS011;63269;53.330;-6.288;2023-01-20T03:22:09;4.63;;;3.83;;
74749;SDS011;63269;53.330;-6.288;2023-01-20T03:24:35;4.22;;;3.35;;
74749;SDS011;63269;53.330;-6.288;2023-01-20T03:27:02;4.95;;;3.67;;
74749;SDS011;63269;53.330;-6.288;2023-01-20T03:29:28;6.10;;;3.88;;
74749;SDS011;63269;53.330;-6.288;2023-01-20T03:31:56;5.13;;;3.92;;
74749;SDS011;63269;53.330;-6.288;2023-01-20T03:34:24;7.93;;;4.63;;
74749;SDS011;63269;53.330;-6.288;2023-01-20T03:36:51;9.80;;;5.40;;
74749;SDS011;63269;53.330;-6.288;2023-01-20T03:39:18;10.65;;;6.18;;
74749;SDS011;63269;53.330;-6.288;2023-01-20T03:49:38;9.18;;;5.80;;
74749;SDS011;63269;53.330;-6.288;2023-01-20T03:54:36;10.10;;;6.05;;
74749;SDS011;63269;53.330;-6.288;2023-01-20T03:57:17;9.65;;;6.13;;
74749;SDS011;63269;53.330;-6.288;2023-01-20T03:59:46;8.75;;;5.75;;
74749;SDS011;63269;53.330;-6.288;2023-01-20T04:02:15;8.85;;;5.10;;
74749;SDS011;63269;53.330;-6.288;2023-01-20T04:04:40;8.35;;;5.63;;
74749;SDS011;63269;53.330;-6.288;2023-01-20T04:07:11;7.70;;;4.95;;
74749;SDS011;63269;53.330;-6.288;2023-01-20T04:09:42;8.32;;;5.50;;
74749;SDS011;63269;53.330;-6.288;2023-01-20T04:12:11;7.38;;;5.10;;
74749;SDS011;63269;53.330;-6.288;2023-01-20T04:14:37;8.90;;;5.50;;
74749;SDS011;63269;53.330;-6.288;2023-01-20T04:17:03;7.88;;;5.10;;
74749;SDS011;63269;53.330;-6.288;2023-01-20T04:19:29;7.00;;;4.45;;
74749;SDS011;63269;53.330;-6.288;2023-01-20T04:27:18;6.15;;;4.63;;
74749;SDS011;63269;53.330;-6.288;2023-01-20T04:29:44;7.28;;;4.95;;
74749;SDS011;63269;53.330;-6.288;2023-01-20T04:32:10;7.38;;;4.22;;
74749;SDS011;63269;53.330;-6.288;2023-01-20T04:34:36;7.63;;;4.10;;
74749;SDS011;63269;53.330;-6.288;2023-01-20T04:37:01;7.18;;;4.60;;
74749;SDS011;63269;53.330;-6.288;2023-01-20T04:39:27;4.97;;;3.72;;
74749;SDS011;63269;53.330;-6.288;2023-01-20T04:41:52;5.22;;;4.07;;
74749;SDS011;63269;53.330;-6.288;2023-01-20T04:44:18;5.63;;;4.07;;
74749;SDS011;63269;53.330;-6.288;2023-01-20T04:46:43;6.53;;;4.03;;
74749;SDS011;63269;53.330;-6.288;2023-01-20T04:49:09;5.28;;;3.85;;
74749;SDS011;63269;53.330;-6.288;2023-01-20T04:51:35;6.35;;;4.35;;
74749;SDS011;63269;53.330;-6.288;2023-01-20T04:54:00;5.65;;;3.70;;
74749;SDS011;63269;53.330;-6.288;2023-01-20T04:56:26;4.93;;;3.83;;
74749;SDS011;63269;53.330;-6.288;2023-01-20T04:58:51;5.18;;;3.83;;
74749;SDS011;63269;53.330;-6.288;2023-01-20T05:01:17;6.38;;;4.45;;
74749;SDS011;63269;53.330;-6.288;2023-01-20T05:03:42;5.22;;;3.92;;
74749;SDS011;63269;53.330;-6.288;2023-01-20T05:06:11;5.53;;;3.63;;
74749;SDS011;63269;53.330;-6.288;2023-01-20T05:08:37;6.00;;;4.07;;
74749;SDS011;63269;53.330;-6.288;2023-01-20T05:11:03;5.10;;;3.42;;
74749;SDS011;63269;53.330;-6.288;2023-01-20T05:13:29;5.10;;;3.78;;
74749;SDS011;63269;53.330;-6.288;2023-01-20T05:15:55;6.22;;;4.10;;
74749;SDS011;63269;53.330;-6.288;2023-01-20T05:18:20;5.15;;;3.83;;
74749;SDS011;63269;53.330;-6.288;2023-01-20T05:20:46;4.68;;;3.33;;
74749;SDS011;63269;53.330;-6.288;2023-01-20T05:23:13;4.75;;;3.53;;
74749;SDS011;63269;53.330;-6.288;2023-01-20T05:25:39;5.20;;;3.67;;
74749;SDS011;63269;53.330;-6.288;2023-01-20T05:28:05;5.53;;;3.50;;
74749;SDS011;63269;53.330;-6.288;2023-01-20T05:30:30;5.18;;;3.45;;
74749;SDS011;63269;53.330;-6.288;2023-01-20T05:32:56;5.97;;;3.90;;
74749;SDS011;63269;53.330;-6.288;2023-01-20T05:35:21;6.68;;;3.92;;
74749;SDS011;63269;53.330;-6.288;2023-01-20T05:37:47;5.82;;;4.15;;
74749;SDS011;63269;53.330;-6.288;2023-01-20T05:40:12;5.28;;;3.45;;
74749;SDS011;63269;53.330;-6.288;2023-01-20T05:42:38;5.45;;;3.75;;
74749;SDS011;63269;53.330;-6.288;2023-01-20T05:45:04;4.90;;;3.65;;
74749;SDS011;63269;53.330;-6.288;2023-01-20T05:47:30;4.75;;;3.53;;
74749;SDS011;63269;53.330;-6.288;2023-01-20T05:49:55;6.10;;;4.00;;
74749;SDS011;63269;53.330;-6.288;2023-01-20T05:52:21;5.32;;;3.60;;
74749;SDS011;63269;53.330;-6.288;2023-01-20T05:54:46;5.60;;;4.07;;
74749;SDS011;63269;53.330;-6.288;2023-01-20T05:57:12;5.10;;;3.85;;
74749;SDS011;63269;53.330;-6.288;2023-01-20T06:02:07;5.13;;;2.92;;
74749;SDS011;63269;53.330;-6.288;2023-01-20T06:04:33;5.68;;;3.60;;
74749;SDS011;63269;53.330;-6.288;2023-01-20T06:06:58;4.25;;;3.15;;
74749;SDS011;63269;53.330;-6.288;2023-01-20T06:09:23;3.85;;;2.90;;
74749;SDS011;63269;53.330;-6.288;2023-01-20T06:11:49;5.68;;;3.50;;
74749;SDS011;63269;53.330;-6.288;2023-01-20T06:14:15;4.82;;;3.83;;
74749;SDS011;63269;53.330;-6.288;2023-01-20T06:16:40;4.30;;;3.15;;
74749;SDS011;63269;53.330;-6.288;2023-01-20T06:19:06;4.43;;;3.10;;
74749;SDS011;63269;53.330;-6.288;2023-01-20T06:21:31;4.78;;;3.58;;
74749;SDS011;63269;53.330;-6.288;2023-01-20T06:23:56;5.53;;;3.30;;
74749;SDS011;63269;53.330;-6.288;2023-01-20T06:26:22;4.28;;;3.45;;
74749;SDS011;63269;53.330;-6.288;2023-01-20T06:28:47;5.75;;;3.70;;
74749;SDS011;63269;53.330;-6.288;2023-01-20T06:31:14;4.75;;;3.70;;
74749;SDS011;63269;53.330;-6.288;2023-01-20T06:33:40;5.85;;;3.58;;
74749;SDS011;63269;53.330;-6.288;2023-01-20T06:36:07;5.20;;;3.78;;
74749;SDS011;63269;53.330;-6.288;2023-01-20T06:38:35;5.72;;;4.18;;
74749;SDS011;63269;53.330;-6.288;2023-01-20T06:41:04;4.93;;;3.67;;
74749;SDS011;63269;53.330;-6.288;2023-01-20T06:43:32;5.28;;;3.58;;
74749;SDS011;63269;53.330;-6.288;2023-01-20T06:46:02;4.22;;;3.13;;
74749;SDS011;63269;53.330;-6.288;2023-01-20T06:48:29;5.05;;;3.50;;
74749;SDS011;63269;53.330;-6.288;2023-01-20T06:51:04;4.40;;;3.47;;
74749;SDS011;63269;53.330;-6.288;2023-01-20T06:53:32;5.25;;;3.70;;
74749;SDS011;63269;53.330;-6.288;2023-01-20T06:55:58;6.03;;;3.85;;
74749;SDS011;63269;53.330;-6.288;2023-01-20T06:58:25;5.10;;;3.60;;
74749;SDS011;63269;53.330;-6.288;2023-01-20T07:00:53;8.10;;;4.03;;
74749;SDS011;63269;53.330;-6.288;2023-01-20T07:03:20;5.28;;;4.07;;
74749;SDS011;63269;53.330;-6.288;2023-01-20T07:05:59;6.28;;;4.32;;
74749;SDS011;63269;53.330;-6.288;2023-01-20T07:08:26;7.03;;;3.83;;
74749;SDS011;63269;53.330;-6.288;2023-01-20T07:10:51;4.57;;;4.07;;
74749;SDS011;63269;53.330;-6.288;2023-01-20T07:13:17;5.40;;;4.10;;
74749;SDS011;63269;53.330;-6.288;2023-01-20T07:15:42;5.65;;;3.90;;
74749;SDS011;63269;53.330;-6.288;2023-01-20T07:18:08;5.82;;;3.60;;
74749;SDS011;63269;53.330;-6.288;2023-01-20T07:20:33;5.32;;;3.88;;
74749;SDS011;63269;53.330;-6.288;2023-01-20T07:22:59;6.68;;;3.85;;
74749;SDS011;63269;53.330;-6.288;2023-01-20T07:25:25;6.13;;;4.22;;
74749;SDS011;63269;53.330;-6.288;2023-01-20T07:27:50;7.05;;;4.47;;
74749;SDS011;63269;53.330;-6.288;2023-01-20T07:30:17;5.80;;;4.20;;
74749;SDS011;63269;53.330;-6.288;2023-01-20T07:32:43;8.18;;;4.65;;
74749;SDS011;63269;53.330;-6.288;2023-01-20T07:35:08;5.20;;;4.60;;
74749;SDS011;63269;53.330;-6.288;2023-01-20T07:37:34;5.82;;;4.28;;
74749;SDS011;63269;53.330;-6.288;2023-01-20T07:39:59;5.28;;;4.43;;
74749;SDS011;63269;53.330;-6.288;2023-01-20T07:42:25;5.60;;;4.35;;
74749;SDS011;63269;53.330;-6.288;2023-01-20T07:44:50;7.63;;;5.47;;
74749;SDS011;63269;53.330;-6.288;2023-01-20T07:47:15;5.28;;;4.30;;
74749;SDS011;63269;53.330;-6.288;2023-01-20T07:49:41;6.00;;;4.28;;
74749;SDS011;63269;53.330;-6.288;2023-01-20T07:52:06;5.05;;;4.47;;
74749;SDS011;63269;53.330;-6.288;2023-01-20T07:54:32;5.95;;;4.20;;
74749;SDS011;63269;53.330;-6.288;2023-01-20T07:56:57;6.05;;;4.03;;
74749;SDS011;63269;53.330;-6.288;2023-01-20T07:59:23;5.93;;;4.60;;
74749;SDS011;63269;53.330;-6.288;2023-01-20T08:01:48;6.10;;;4.05;;
74749;SDS011;63269;53.330;-6.288;2023-01-20T08:04:13;7.82;;;4.80;;
74749;SDS011;63269;53.330;-6.288;2023-01-20T08:06:39;6.03;;;4.22;;
74749;SDS011;63269;53.330;-6.288;2023-01-20T08:09:04;5.85;;;4.40;;
74749;SDS011;63269;53.330;-6.288;2023-01-20T08:11:32;6.15;;;4.03;;
74749;SDS011;63269;53.330;-6.288;2023-01-20T08:13:58;6.38;;;4.53;;
74749;SDS011;63269;53.330;-6.288;2023-01-20T08:16:23;5.60;;;3.92;;
74749;SDS011;63269;53.330;-6.288;2023-01-20T08:18:51;6.90;;;4.70;;
74749;SDS011;63269;53.330;-6.288;2023-01-20T08:21:18;6.63;;;4.88;;
74749;SDS011;63269;53.330;-6.288;2023-01-20T08:23:48;8.25;;;4.25;;
74749;SDS011;63269;53.330;-6.288;2023-01-20T08:26:14;7.80;;;4.97;;
74749;SDS011;63269;53.330;-6.288;2023-01-20T08:28:40;5.43;;;3.95;;
74749;SDS011;63269;53.330;-6.288;2023-01-20T08:31:06;6.78;;;4.22;;
74749;SDS011;63269;53.330;-6.288;2023-01-20T08:33:34;6.38;;;4.25;;
74749;SDS011;63269;53.330;-6.288;2023-01-20T08:36:04;5.82;;;4.72;;
74749;SDS011;63269;53.330;-6.288;2023-01-20T08:38:34;6.57;;;4.38;;
74749;SDS011;63269;53.330;-6.288;2023-01-20T08:41:00;6.00;;;4.57;;
74749;SDS011;63269;53.330;-6.288;2023-01-20T08:43:26;5.82;;;4.53;;
74749;SDS011;63269;53.330;-6.288;2023-01-20T08:46:02;7.40;;;4.65;;
74749;SDS011;63269;53.330;-6.288;2023-01-20T08:48:31;5.75;;;4.05;;
74749;SDS011;63269;53.330;-6.288;2023-01-20T08:50:57;8.40;;;4.53;;
74749;SDS011;63269;53.330;-6.288;2023-01-20T08:53:23;6.47;;;4.60;;
74749;SDS011;63269;53.330;-6.288;2023-01-20T08:55:58;6.57;;;4.75;;
74749;SDS011;63269;53.330;-6.288;2023-01-20T08:58:24;6.32;;;4.30;;
74749;SDS011;63269;53.330;-6.288;2023-01-20T09:00:51;7.20;;;4.70;;
74749;SDS011;63269;53.330;-6.288;2023-01-20T09:03:17;7.90;;;4.85;;
74749;SDS011;63269;53.330;-6.288;2023-01-20T09:05:43;9.73;;;5.03;;
74749;SDS011;63269;53.330;-6.288;2023-01-20T09:08:08;7.97;;;4.38;;
74749;SDS011;63269;53.330;-6.288;2023-01-20T09:10:34;8.15;;;5.20;;
74749;SDS011;63269;53.330;-6.288;2023-01-20T09:12:59;9.40;;;5.00;;
74749;SDS011;63269;53.330;-6.288;2023-01-20T09:15:25;9.82;;;5.75;;
74749;SDS011;63269;53.330;-6.288;2023-01-20T09:17:51;9.45;;;5.53;;
74749;SDS011;63269;53.330;-6.288;2023-01-20T09:20:16;9.85;;;5.80;;
74749;SDS011;63269;53.330;-6.288;2023-01-20T09:22:42;9.02;;;6.05;;
74749;SDS011;63269;53.330;-6.288;2023-01-20T09:25:07;11.55;;;5.70;;
74749;SDS011;63269;53.330;-6.288;2023-01-20T09:27:34;9.63;;;5.55;;
74749;SDS011;63269;53.330;-6.288;2023-01-20T09:29:59;13.38;;;6.15;;
74749;SDS011;63269;53.330;-6.288;2023-01-20T09:32:25;8.40;;;5.60;;
74749;SDS011;63269;53.330;-6.288;2023-01-20T09:34:50;8.65;;;5.90;;
74749;SDS011;63269;53.330;-6.288;2023-01-20T09:37:16;7.97;;;5.80;;
74749;SDS011;63269;53.330;-6.288;2023-01-20T09:40:00;8.98;;;6.13;;
74749;SDS011;63269;53.330;-6.288;2023-01-20T09:42:55;9.85;;;6.65;;
74749;SDS011;63269;53.330;-6.288;2023-01-20T09:46:27;8.70;;;6.07;;
74749;SDS011;63269;53.330;-6.288;2023-01-20T09:49:08;8.48;;;6.35;;
74749;SDS011;63269;53.330;-6.288;2023-01-20T09:52:04;14.65;;;6.68;;
74749;SDS011;63269;53.330;-6.288;2023-01-20T09:55:00;8.98;;;6.28;;
74749;SDS011;63269;53.330;-6.288;2023-01-20T09:57:32;10.30;;;6.28;;
74749;SDS011;63269;53.330;-6.288;2023-01-20T10:00:05;14.43;;;7.10;;
74749;SDS011;63269;53.330;-6.288;2023-01-20T10:02:35;11.95;;;6.63;;
74749;SDS011;63269;53.330;-6.288;2023-01-20T10:05:06;9.35;;;6.53;;
74749;SDS011;63269;53.330;-6.288;2023-01-20T10:07:54;14.02;;;7.05;;
74749;SDS011;63269;53.330;-6.288;2023-01-20T10:15:44;9.27;;;6.07;;
74749;SDS011;63269;53.330;-6.288;2023-01-20T10:23:41;8.52;;;5.28;;
74749;SDS011;63269;53.330;-6.288;2023-01-20T10:26:33;10.35;;;5.13;;
74749;SDS011;63269;53.330;-6.288;2023-01-20T10:29:36;7.85;;;5.40;;
74749;SDS011;63269;53.330;-6.288;2023-01-20T10:32:03;7.38;;;4.55;;
74749;SDS011;63269;53.330;-6.288;2023-01-20T10:34:40;6.22;;;4.88;;
74749;SDS011;63269;53.330;-6.288;2023-01-20T10:37:10;7.35;;;4.88;;
74749;SDS011;63269;53.330;-6.288;2023-01-20T10:42:14;7.47;;;4.35;;
74749;SDS011;63269;53.330;-6.288;2023-01-20T10:44:41;6.13;;;4.35;;
74749;SDS011;63269;53.330;-6.288;2023-01-20T10:47:14;6.82;;;4.28;;
74749;SDS011;63269;53.330;-6.288;2023-01-20T10:57:40;6.95;;;3.70;;
74749;SDS011;63269;53.330;-6.288;2023-01-20T11:00:08;7.88;;;4.07;;
74749;SDS011;63269;53.330;-6.288;2023-01-20T11:02:44;7.07;;;4.07;;
74749;SDS011;63269;53.330;-6.288;2023-01-20T11:07:41;8.70;;;4.25;;
74749;SDS011;63269;53.330;-6.288;2023-01-20T11:10:15;7.38;;;3.42;;
74749;SDS011;63269;53.330;-6.288;2023-01-20T11:12:44;8.98;;;4.28;;
74749;SDS011;63269;53.330;-6.288;2023-01-20T11:15:18;7.90;;;3.47;;
74749;SDS011;63269;53.330;-6.288;2023-01-20T11:17:46;4.90;;;3.05;;
74749;SDS011;63269;53.330;-6.288;2023-01-20T11:20:50;5.47;;;3.40;;
74749;SDS011;63269;53.330;-6.288;2023-01-20T11:23:31;5.57;;;3.15;;
74749;SDS011;63269;53.330;-6.288;2023-01-20T11:26:02;6.93;;;2.85;;
74749;SDS011;63269;53.330;-6.288;2023-01-20T11:34:28;6.07;;;2.90;;
74749;SDS011;63269;53.330;-6.288;2023-01-20T11:42:17;9.85;;;3.00;;
74749;SDS011;63269;53.330;-6.288;2023-01-20T11:44:50;7.80;;;3.50;;
74749;SDS011;63269;53.330;-6.288;2023-01-20T11:47:21;4.85;;;2.70;;
74749;SDS011;63269;53.330;-6.288;2023-01-20T11:52:31;5.32;;;2.80;;
74749;SDS011;63269;53.330;-6.288;2023-01-20T11:58:00;5.97;;;2.80;;
74749;SDS011;63269;53.330;-6.288;2023-01-20T12:00:32;5.05;;;2.83;;
74749;SDS011;63269;53.330;-6.288;2023-01-20T12:08:16;7.22;;;2.95;;
74749;SDS011;63269;53.330;-6.288;2023-01-20T12:10:50;6.82;;;2.80;;
74749;SDS011;63269;53.330;-6.288;2023-01-20T12:13:18;5.55;;;2.55;;
74749;SDS011;63269;53.330;-6.288;2023-01-20T12:15:47;8.25;;;3.00;;
74749;SDS011;63269;53.330;-6.288;2023-01-20T12:26:16;4.53;;;2.35;;
74749;SDS011;63269;53.330;-6.288;2023-01-20T12:31:21;5.47;;;2.35;;
74749;SDS011;63269;53.330;-6.288;2023-01-20T12:33:49;6.47;;;2.40;;
74749;SDS011;63269;53.330;-6.288;2023-01-20T12:44:39;4.63;;;2.08;;
74749;SDS011;63269;53.330;-6.288;2023-01-20T12:53:18;3.92;;;1.80;;
74749;SDS011;63269;53.330;-6.288;2023-01-20T13:09:14;5.28;;;2.53;;
74749;SDS011;63269;53.330;-6.288;2023-01-20T13:17:16;4.45;;;2.22;;
74749;SDS011;63269;53.330;-6.288;2023-01-20T13:19:50;4.70;;;1.92;;
74749;SDS011;63269;53.330;-6.288;2023-01-20T13:22:18;5.45;;;2.35;;
74749;SDS011;63269;53.330;-6.288;2023-01-20T13:24:49;3.80;;;2.00;;
74749;SDS011;63269;53.330;-6.288;2023-01-20T13:27:19;5.82;;;2.00;;
74749;SDS011;63269;53.330;-6.288;2023-01-20T13:29:51;6.15;;;2.97;;
74749;SDS011;63269;53.330;-6.288;2023-01-20T13:34:56;4.65;;;2.13;;
74749;SDS011;63269;53.330;-6.288;2023-01-20T13:37:23;5.00;;;1.80;;
74749;SDS011;63269;53.330;-6.288;2023-01-20T13:39:54;4.85;;;1.73;;
74749;SDS011;63269;53.330;-6.288;2023-01-20T14:00:36;3.30;;;1.60;;
74749;SDS011;63269;53.330;-6.288;2023-01-20T14:03:01;2.95;;;1.38;;
74749;SDS011;63269;53.330;-6.288;2023-01-20T14:05:42;3.83;;;2.47;;
74749;SDS011;63269;53.330;-6.288;2023-01-20T14:08:13;4.43;;;1.63;;
74749;SDS011;63269;53.330;-6.288;2023-01-20T14:10:39;3.13;;;1.48;;
74749;SDS011;63269;53.330;-6.288;2023-01-20T14:13:14;4.55;;;1.30;;
74749;SDS011;63269;53.330;-6.288;2023-01-20T14:15:46;3.65;;;1.70;;
74749;SDS011;63269;53.330;-6.288;2023-01-20T14:18:17;4.43;;;1.50;;
74749;SDS011;63269;53.330;-6.288;2023-01-20T14:20:55;3.58;;;1.25;;
74749;SDS011;63269;53.330;-6.288;2023-01-20T14:26:01;3.78;;;1.52;;
74749;SDS011;63269;53.330;-6.288;2023-01-20T14:28:29;3.00;;;1.20;;
74749;SDS011;63269;53.330;-6.288;2023-01-20T14:31:10;2.47;;;1.13;;
74749;SDS011;63269;53.330;-6.288;2023-01-20T14:36:36;5.03;;;1.45;;
74749;SDS011;63269;53.330;-6.288;2023-01-20T14:39:02;2.60;;;1.10;;
74749;SDS011;63269;53.330;-6.288;2023-01-20T14:46:24;3.78;;;1.25;;
74749;SDS011;63269;53.330;-6.288;2023-01-20T14:48:51;1.70;;;0.75;;
74749;SDS011;63269;53.330;-6.288;2023-01-20T14:51:18;3.38;;;1.38;;
74749;SDS011;63269;53.330;-6.288;2023-01-20T14:53:44;3.72;;;1.40;;
74749;SDS011;63269;53.330;-6.288;2023-01-20T14:56:18;2.78;;;1.50;;
74749;SDS011;63269;53.330;-6.288;2023-01-20T14:58:48;3.10;;;1.20;;
74749;SDS011;63269;53.330;-6.288;2023-01-20T15:01:19;3.28;;;1.20;;
74749;SDS011;63269;53.330;-6.288;2023-01-20T15:03:57;3.13;;;1.55;;
74749;SDS011;63269;53.330;-6.288;2023-01-20T15:06:24;2.80;;;1.27;;
74749;SDS011;63269;53.330;-6.288;2023-01-20T15:08:50;2.58;;;1.17;;
74749;SDS011;63269;53.330;-6.288;2023-01-20T15:16:23;3.38;;;1.40;;
74749;SDS011;63269;53.330;-6.288;2023-01-20T15:21:37;2.83;;;1.25;;
74749;SDS011;63269;53.330;-6.288;2023-01-20T15:24:14;3.15;;;1.20;;
74749;SDS011;63269;53.330;-6.288;2023-01-20T15:26:40;5.22;;;1.92;;
74749;SDS011;63269;53.330;-6.288;2023-01-20T15:29:25;2.10;;;1.25;;
74749;SDS011;63269;53.330;-6.288;2023-01-20T15:31:52;1.52;;;1.10;;
74749;SDS011;63269;53.330;-6.288;2023-01-20T15:34:19;3.25;;;1.30;;
74749;SDS011;63269;53.330;-6.288;2023-01-20T15:36:47;3.38;;;1.67;;
74749;SDS011;63269;53.330;-6.288;2023-01-20T15:39:15;2.28;;;1.40;;
74749;SDS011;63269;53.330;-6.288;2023-01-20T15:41:46;2.42;;;1.23;;
74749;SDS011;63269;53.330;-6.288;2023-01-20T15:44:13;2.40;;;1.42;;
74749;SDS011;63269;53.330;-6.288;2023-01-20T15:46:39;3.47;;;1.80;;
74749;SDS011;63269;53.330;-6.288;2023-01-20T15:49:09;2.72;;;1.27;;
74749;SDS011;63269;53.330;-6.288;2023-01-20T15:51:35;4.05;;;2.00;;
74749;SDS011;63269;53.330;-6.288;2023-01-20T15:54:01;2.45;;;1.70;;
74749;SDS011;63269;53.330;-6.288;2023-01-20T15:56:27;3.38;;;1.70;;
74749;SDS011;63269;53.330;-6.288;2023-01-20T15:58:54;3.05;;;1.63;;
74749;SDS011;63269;53.330;-6.288;2023-01-20T16:01:21;6.47;;;2.25;;
74749;SDS011;63269;53.330;-6.288;2023-01-20T16:03:49;4.25;;;1.90;;
74749;SDS011;63269;53.330;-6.288;2023-01-20T16:06:16;4.35;;;1.90;;
74749;SDS011;63269;53.330;-6.288;2023-01-20T16:08:44;4.00;;;2.10;;
74749;SDS011;63269;53.330;-6.288;2023-01-20T16:11:11;3.47;;;1.90;;
74749;SDS011;63269;53.330;-6.288;2023-01-20T16:13:38;3.90;;;1.83;;
74749;SDS011;63269;53.330;-6.288;2023-01-20T16:16:04;3.75;;;1.85;;
74749;SDS011;63269;53.330;-6.288;2023-01-20T16:18:36;5.57;;;2.20;;
74749;SDS011;63269;53.330;-6.288;2023-01-20T16:21:01;5.57;;;2.25;;
74749;SDS011;63269;53.330;-6.288;2023-01-20T16:23:28;5.28;;;1.80;;
74749;SDS011;63269;53.330;-6.288;2023-01-20T16:25:54;4.25;;;1.98;;
74749;SDS011;63269;53.330;-6.288;2023-01-20T16:28:19;3.08;;;1.77;;
74749;SDS011;63269;53.330;-6.288;2023-01-20T16:30:47;3.13;;;1.77;;
74749;SDS011;63269;53.330;-6.288;2023-01-20T16:33:14;3.72;;;2.08;;
74749;SDS011;63269;53.330;-6.288;2023-01-20T16:35:44;8.18;;;2.05;;
74749;SDS011;63269;53.330;-6.288;2023-01-20T16:38:13;6.75;;;2.60;;
74749;SDS011;63269;53.330;-6.288;2023-01-20T16:40:43;3.88;;;2.28;;
74749;SDS011;63269;53.330;-6.288;2023-01-20T16:43:11;6.03;;;2.80;;
74749;SDS011;63269;53.330;-6.288;2023-01-20T16:45:37;7.80;;;3.22;;
74749;SDS011;63269;53.330;-6.288;2023-01-20T16:48:02;5.25;;;2.50;;
74749;SDS011;63269;53.330;-6.288;2023-01-20T16:50:28;5.07;;;2.45;;
74749;SDS011;63269;53.330;-6.288;2023-01-20T16:52:54;4.93;;;2.40;;
74749;SDS011;63269;53.330;-6.288;2023-01-20T16:55:20;4.32;;;2.42;;
74749;SDS011;63269;53.330;-6.288;2023-01-20T16:57:46;4.07;;;2.60;;
74749;SDS011;63269;53.330;-6.288;2023-01-20T17:00:11;6.57;;;2.58;;
74749;SDS011;63269;53.330;-6.288;2023-01-20T17:02:37;4.65;;;2.35;;
74749;SDS011;63269;53.330;-6.288;2023-01-20T17:05:04;4.90;;;2.72;;
74749;SDS011;63269;53.330;-6.288;2023-01-20T17:07:31;4.22;;;2.47;;
74749;SDS011;63269;53.330;-6.288;2023-01-20T17:09:57;5.57;;;2.50;;
74749;SDS011;63269;53.330;-6.288;2023-01-20T17:12:22;3.40;;;2.05;;
74749;SDS011;63269;53.330;-6.288;2023-01-20T17:14:48;4.10;;;2.30;;
74749;SDS011;63269;53.330;-6.288;2023-01-20T17:17:13;4.95;;;2.70;;
74749;SDS011;63269;53.330;-6.288;2023-01-20T17:19:38;4.45;;;2.50;;
74749;SDS011;63269;53.330;-6.288;2023-01-20T17:22:04;4.38;;;2.80;;
74749;SDS011;63269;53.330;-6.288;2023-01-20T17:24:29;6.18;;;2.47;;
74749;SDS011;63269;53.330;-6.288;2023-01-20T17:26:57;5.18;;;2.92;;
74749;SDS011;63269;53.330;-6.288;2023-01-20T17:29:22;6.53;;;3.47;;
74749;SDS011;63269;53.330;-6.288;2023-01-20T17:31:48;5.40;;;3.30;;
74749;SDS011;63269;53.330;-6.288;2023-01-20T17:34:13;7.70;;;3.95;;
74749;SDS011;63269;53.330;-6.288;2023-01-20T17:36:38;5.32;;;4.10;;